N256VM SCTB-SCVM
Flight info
| Callsign | N256VM |
|---|---|
| Flight time | 1h 9m |
| Altitude | 4500 |
| Route | DCT |
| Aircraft | S22T/L-SDGRY/S |
Departure
| Time | 2026-05-05 00:29 |
|---|---|
| Airport | Eulogio Sánchez Airport (SCTB) |
Arrival
| Time | 2026-05-05 01:38 |
|---|---|
| Airport | Viña del Mar Airport (SCVM) |
| Time | Latitude | Longitude | Altitude | Speed | Heading |
|---|---|---|---|---|---|
| 2026-05-05 00:11 | -33.45289 | -70.54713 | 2150 ft | 0 kts | 10° |
| 2026-05-05 00:24 | -33.45116 | -70.54590 | 2152 ft | 0 kts | 124° |
| 2026-05-05 00:25 | -33.45116 | -70.54589 | 2152 ft | 0 kts | 118° |
| 2026-05-05 00:25 | -33.45117 | -70.54586 | 2152 ft | 0 kts | 107° |
| 2026-05-05 00:26 | -33.45133 | -70.54528 | 2152 ft | 11 kts | 152° |
| 2026-05-05 00:26 | -33.45155 | -70.54530 | 2151 ft | 0 kts | 192° |
| 2026-05-05 00:27 | -33.45156 | -70.54531 | 2151 ft | 0 kts | 192° |
| 2026-05-05 00:27 | -33.45157 | -70.54531 | 2151 ft | 1 kts | 192° |
| 2026-05-05 00:28 | -33.45215 | -70.54545 | 2149 ft | 34 kts | 189° |
| 2026-05-05 00:28 | -33.45685 | -70.54684 | 2152 ft | 98 kts | 193° |
| 2026-05-05 00:28 | -33.46431 | -70.54892 | 2347 ft | 119 kts | 192° |
| 2026-05-05 00:28 | -33.47274 | -70.55163 | 2552 ft | 132 kts | 199° |
| 2026-05-05 00:29 | -33.47953 | -70.55869 | 2864 ft | 133 kts | 257° |
| 2026-05-05 00:29 | -33.47613 | -70.56843 | 3224 ft | 126 kts | 293° |
| 2026-05-05 00:29 | -33.47633 | -70.57945 | 3461 ft | 139 kts | 261° |
| 2026-05-05 00:29 | -33.47605 | -70.59054 | 3898 ft | 134 kts | 288° |
| 2026-05-05 00:30 | -33.47099 | -70.59981 | 4326 ft | 132 kts | 312° |
| 2026-05-05 00:30 | -33.46514 | -70.60756 | 4884 ft | 117 kts | 313° |
| 2026-05-05 00:30 | -33.46114 | -70.61596 | 5219 ft | 126 kts | 312° |
| 2026-05-05 00:30 | -33.45567 | -70.62568 | 5107 ft | 160 kts | 287° |
| 2026-05-05 00:31 | -33.45563 | -70.63923 | 5196 ft | 171 kts | 248° |
| 2026-05-05 00:31 | -33.46476 | -70.64968 | 4968 ft | 194 kts | 213° |
| 2026-05-05 00:31 | -33.47606 | -70.65779 | 5203 ft | 181 kts | 208° |
| 2026-05-05 00:31 | -33.48698 | -70.66450 | 5452 ft | 177 kts | 207° |
| 2026-05-05 00:32 | -33.49791 | -70.67089 | 5633 ft | 176 kts | 206° |
| 2026-05-05 00:32 | -33.50951 | -70.67749 | 5435 ft | 194 kts | 206° |
| 2026-05-05 00:32 | -33.52175 | -70.68441 | 5439 ft | 191 kts | 207° |
| 2026-05-05 00:32 | -33.53337 | -70.69145 | 5472 ft | 191 kts | 210° |
| 2026-05-05 00:33 | -33.54515 | -70.69990 | 5309 ft | 197 kts | 213° |
| 2026-05-05 00:33 | -33.55551 | -70.70990 | 5305 ft | 193 kts | 231° |
| 2026-05-05 00:33 | -33.56356 | -70.72366 | 4875 ft | 209 kts | 238° |
| 2026-05-05 00:33 | -33.57110 | -70.73834 | 4733 ft | 207 kts | 240° |
| 2026-05-05 00:34 | -33.57878 | -70.75271 | 4677 ft | 203 kts | 227° |
| 2026-05-05 00:34 | -33.58992 | -70.76343 | 4407 ft | 209 kts | 215° |
| 2026-05-05 00:34 | -33.59437 | -70.77938 | 3940 ft | 215 kts | 289° |
| 2026-05-05 00:34 | -33.58528 | -70.79194 | 4162 ft | 188 kts | 319° |
| 2026-05-05 00:35 | -33.57740 | -70.80337 | 4358 ft | 179 kts | 300° |
| 2026-05-05 00:35 | -33.57211 | -70.81710 | 4332 ft | 184 kts | 292° |
| 2026-05-05 00:35 | -33.56763 | -70.83274 | 3915 ft | 204 kts | 289° |
| 2026-05-05 00:35 | -33.56349 | -70.84835 | 4001 ft | 193 kts | 288° |
| 2026-05-05 00:36 | -33.55950 | -70.86338 | 3988 ft | 192 kts | 290° |
| 2026-05-05 00:36 | -33.55501 | -70.87875 | 3740 ft | 199 kts | 291° |
| 2026-05-05 00:36 | -33.55017 | -70.89442 | 3588 ft | 199 kts | 291° |
| 2026-05-05 00:36 | -33.54507 | -70.90982 | 3545 ft | 195 kts | 293° |
| 2026-05-05 00:37 | -33.53977 | -70.92470 | 3459 ft | 193 kts | 293° |
| 2026-05-05 00:37 | -33.53538 | -70.93947 | 3527 ft | 184 kts | 288° |
| 2026-05-05 00:37 | -33.53127 | -70.95346 | 3679 ft | 174 kts | 297° |
| 2026-05-05 00:37 | -33.52338 | -70.96471 | 3525 ft | 185 kts | 320° |
| 2026-05-05 00:38 | -33.51321 | -70.97447 | 3390 ft | 188 kts | 323° |
| 2026-05-05 00:38 | -33.50277 | -70.98383 | 3424 ft | 182 kts | 324° |
| 2026-05-05 00:38 | -33.49294 | -70.99264 | 3538 ft | 178 kts | 324° |
| 2026-05-05 00:38 | -33.48375 | -71.00274 | 3513 ft | 182 kts | 312° |
| 2026-05-05 00:39 | -33.47548 | -71.01447 | 3496 ft | 182 kts | 309° |
| 2026-05-05 00:39 | -33.46786 | -71.02607 | 3682 ft | 174 kts | 309° |
| 2026-05-05 00:39 | -33.46071 | -71.03709 | 3942 ft | 161 kts | 309° |
| 2026-05-05 00:39 | -33.45475 | -71.04650 | 4134 ft | 126 kts | 309° |
| 2026-05-05 00:40 | -33.44942 | -71.05473 | 4289 ft | 126 kts | 310° |
| 2026-05-05 00:40 | -33.44418 | -71.06300 | 4459 ft | 125 kts | 309° |
| 2026-05-05 00:40 | -33.43892 | -71.07132 | 4565 ft | 123 kts | 309° |
| 2026-05-05 00:40 | -33.43385 | -71.07945 | 4673 ft | 123 kts | 309° |
| 2026-05-05 00:41 | -33.42879 | -71.08769 | 4817 ft | 123 kts | 308° |
| 2026-05-05 00:41 | -33.42611 | -71.09781 | 4655 ft | 143 kts | 272° |
| 2026-05-05 00:41 | -33.42715 | -71.10950 | 4655 ft | 135 kts | 263° |
| 2026-05-05 00:41 | -33.42801 | -71.12091 | 4294 ft | 141 kts | 271° |
| 2026-05-05 00:42 | -33.42780 | -71.13278 | 3791 ft | 151 kts | 289° |
| 2026-05-05 00:42 | -33.42068 | -71.14231 | 3123 ft | 164 kts | 337° |
| 2026-05-05 00:42 | -33.40932 | -71.14233 | 2419 ft | 172 kts | 25° |
| 2026-05-05 00:42 | -33.40411 | -71.13109 | 2001 ft | 162 kts | 110° |
| 2026-05-05 00:43 | -33.41239 | -71.13089 | 1457 ft | 162 kts | 259° |
| 2026-05-05 00:43 | -33.41182 | -71.14274 | 1480 ft | 128 kts | 240° |
| 2026-05-05 00:43 | -33.41859 | -71.14741 | 1413 ft | 116 kts | 174° |
| 2026-05-05 00:43 | -33.42351 | -71.14115 | 1384 ft | 110 kts | 87° |
| 2026-05-05 00:44 | -33.41785 | -71.13616 | 1134 ft | 124 kts | 343° |
| 2026-05-05 00:44 | -33.41378 | -71.14331 | 1290 ft | 98 kts | 293° |
| 2026-05-05 00:44 | -33.41002 | -71.14992 | 1332 ft | 94 kts | 291° |
| 2026-05-05 00:44 | -33.40789 | -71.15736 | 1398 ft | 104 kts | 286° |
| 2026-05-05 00:45 | -33.40580 | -71.16624 | 1363 ft | 113 kts | 284° |
| 2026-05-05 00:45 | -33.40474 | -71.17495 | 1295 ft | 104 kts | 239° |
| 2026-05-05 00:45 | -33.41094 | -71.17482 | 1087 ft | 101 kts | 105° |
| 2026-05-05 00:45 | -33.41261 | -71.16609 | 689 ft | 111 kts | 109° |
| 2026-05-05 00:46 | -33.41477 | -71.15789 | 831 ft | 101 kts | 106° |
| 2026-05-05 00:46 | -33.41679 | -71.14958 | 1050 ft | 108 kts | 105° |
| 2026-05-05 00:46 | -33.41781 | -71.14069 | 1253 ft | 111 kts | 70° |
| 2026-05-05 00:46 | -33.41169 | -71.13652 | 1565 ft | 104 kts | 359° |
| 2026-05-05 00:47 | -33.40546 | -71.14061 | 1709 ft | 117 kts | 302° |
| 2026-05-05 00:47 | -33.40067 | -71.14940 | 1635 ft | 134 kts | 303° |
| 2026-05-05 00:47 | -33.39966 | -71.16066 | 1385 ft | 152 kts | 252° |
| 2026-05-05 00:47 | -33.40242 | -71.17254 | 1511 ft | 133 kts | 259° |
| 2026-05-05 00:48 | -33.40198 | -71.18306 | 1706 ft | 128 kts | 283° |
| 2026-05-05 00:48 | -33.39959 | -71.19310 | 1893 ft | 123 kts | 282° |
| 2026-05-05 00:48 | -33.39820 | -71.20159 | 1903 ft | 97 kts | 274° |
| 2026-05-05 00:48 | -33.40079 | -71.20886 | 1777 ft | 108 kts | 197° |
| 2026-05-05 00:49 | -33.40543 | -71.20697 | 1397 ft | 133 kts | 127° |
| 2026-05-05 00:51 | -33.40824 | -71.18976 | 1558 ft | 104 kts | 94° |
| 2026-05-05 00:51 | -33.40872 | -71.18082 | 1475 ft | 113 kts | 94° |
| 2026-05-05 00:51 | -33.40925 | -71.17121 | 1360 ft | 119 kts | 94° |
| 2026-05-05 00:51 | -33.40980 | -71.16119 | 1270 ft | 120 kts | 94° |
| 2026-05-05 00:52 | -33.41305 | -71.15436 | 1428 ft | 93 kts | 198° |
| 2026-05-05 00:52 | -33.41459 | -71.16243 | 1273 ft | 134 kts | 283° |
| 2026-05-05 00:52 | -33.41153 | -71.17330 | 1511 ft | 138 kts | 291° |
| 2026-05-05 00:52 | -33.40802 | -71.18388 | 1805 ft | 137 kts | 288° |
| 2026-05-05 00:53 | -33.40877 | -71.19524 | 1871 ft | 152 kts | 244° |
| 2026-05-05 00:53 | -33.41374 | -71.20559 | 2307 ft | 138 kts | 236° |
| 2026-05-05 00:53 | -33.42144 | -71.21257 | 2438 ft | 150 kts | 200° |
| 2026-05-05 00:53 | -33.43095 | -71.21591 | 2886 ft | 133 kts | 192° |
| 2026-05-05 00:54 | -33.43943 | -71.21813 | 3456 ft | 118 kts | 191° |
| 2026-05-05 00:54 | -33.44741 | -71.22018 | 3809 ft | 122 kts | 192° |
| 2026-05-05 00:54 | -33.45605 | -71.22418 | 3819 ft | 150 kts | 223° |
| 2026-05-05 00:54 | -33.46297 | -71.23446 | 3723 ft | 170 kts | 224° |
| 2026-05-05 00:55 | -33.47215 | -71.24335 | 3976 ft | 160 kts | 218° |
| 2026-05-05 00:55 | -33.47984 | -71.25178 | 4327 ft | 152 kts | 239° |
| 2026-05-05 00:55 | -33.48353 | -71.26419 | 4273 ft | 167 kts | 263° |
| 2026-05-05 00:55 | -33.48508 | -71.27822 | 4240 ft | 176 kts | 258° |
| 2026-05-05 00:56 | -33.49012 | -71.29214 | 4205 ft | 182 kts | 243° |
| 2026-05-05 00:56 | -33.49654 | -71.30444 | 4542 ft | 166 kts | 239° |
| 2026-05-05 00:56 | -33.50253 | -71.31527 | 4988 ft | 151 kts | 239° |
| 2026-05-05 00:56 | -33.50781 | -71.32699 | 5021 ft | 164 kts | 250° |
| 2026-05-05 00:57 | -33.51222 | -71.34055 | 5011 ft | 172 kts | 255° |
| 2026-05-05 00:57 | -33.51571 | -71.35307 | 5365 ft | 161 kts | 256° |
| 2026-05-05 00:57 | -33.51939 | -71.36698 | 4936 ft | 193 kts | 256° |
| 2026-05-05 00:57 | -33.52483 | -71.38217 | 4953 ft | 191 kts | 237° |
| 2026-05-05 00:58 | -33.53419 | -71.39176 | 5212 ft | 181 kts | 219° |
| 2026-05-05 00:58 | -33.54455 | -71.40177 | 4835 ft | 201 kts | 213° |
| 2026-05-05 00:58 | -33.55905 | -71.40175 | 3872 ft | 224 kts | 156° |
| 2026-05-05 00:58 | -33.57088 | -71.39499 | 4200 ft | 165 kts | 157° |
| 2026-05-05 00:59 | -33.58192 | -71.39416 | 3827 ft | 164 kts | 195° |
| 2026-05-05 00:59 | -33.59169 | -71.40172 | 3169 ft | 174 kts | 231° |
| 2026-05-05 00:59 | -33.59625 | -71.41505 | 2553 ft | 176 kts | 266° |
| 2026-05-05 00:59 | -33.59352 | -71.42892 | 2078 ft | 169 kts | 302° |
| 2026-05-05 01:00 | -33.58474 | -71.43657 | 1937 ft | 153 kts | 347° |
| 2026-05-05 01:00 | -33.57423 | -71.43421 | 1515 ft | 168 kts | 32° |
| 2026-05-05 01:00 | -33.56755 | -71.42528 | 2058 ft | 115 kts | 54° |
| 2026-05-05 01:00 | -33.56480 | -71.41718 | 2192 ft | 112 kts | 86° |
| 2026-05-05 01:01 | -33.56541 | -71.40677 | 2033 ft | 129 kts | 96° |
| 2026-05-05 01:01 | -33.56654 | -71.39622 | 2076 ft | 126 kts | 97° |
| 2026-05-05 01:01 | -33.56771 | -71.38584 | 2118 ft | 125 kts | 97° |
| 2026-05-05 01:01 | -33.56888 | -71.37562 | 2150 ft | 125 kts | 97° |
| 2026-05-05 01:02 | -33.57006 | -71.36531 | 2162 ft | 125 kts | 96° |
| 2026-05-05 01:02 | -33.57105 | -71.35489 | 2188 ft | 125 kts | 96° |
| 2026-05-05 01:02 | -33.57209 | -71.34473 | 2233 ft | 124 kts | 97° |
| 2026-05-05 01:02 | -33.57318 | -71.33439 | 2254 ft | 125 kts | 97° |
| 2026-05-05 01:03 | -33.57430 | -71.32399 | 2267 ft | 126 kts | 97° |
| 2026-05-05 01:03 | -33.57541 | -71.31364 | 2274 ft | 127 kts | 97° |
| 2026-05-05 01:03 | -33.57653 | -71.30304 | 2293 ft | 127 kts | 97° |
| 2026-05-05 01:03 | -33.57762 | -71.29255 | 2336 ft | 133 kts | 85° |
| 2026-05-05 01:04 | -33.57061 | -71.28396 | 1359 ft | 201 kts | 10° |
| 2026-05-05 01:04 | -33.55547 | -71.30155 | 1143 ft | 202 kts | 256° |
| 2026-05-05 01:04 | -33.56022 | -71.31325 | 2311 ft | 127 kts | 227° |
| 2026-05-05 01:05 | -33.56726 | -71.32004 | 2492 ft | 142 kts | 206° |
| 2026-05-05 01:05 | -33.57709 | -71.31923 | 2597 ft | 151 kts | 147° |
| 2026-05-05 01:05 | -33.58551 | -71.31234 | 2843 ft | 151 kts | 141° |
| 2026-05-05 01:05 | -33.59373 | -71.30481 | 3066 ft | 153 kts | 141° |
| 2026-05-05 01:06 | -33.60202 | -71.29709 | 3323 ft | 145 kts | 141° |
| 2026-05-05 01:06 | -33.60304 | -71.28793 | 3341 ft | 153 kts | 29° |
| 2026-05-05 01:06 | -33.59719 | -71.29531 | 2704 ft | 196 kts | 255° |
| 2026-05-05 01:06 | -33.60336 | -71.31065 | 2484 ft | 196 kts | 251° |
| 2026-05-05 01:07 | -33.60348 | -71.32537 | 2897 ft | 165 kts | 286° |
| 2026-05-05 01:07 | -33.59990 | -71.33696 | 3490 ft | 134 kts | 295° |
| 2026-05-05 01:07 | -33.59644 | -71.34647 | 3925 ft | 128 kts | 295° |
| 2026-05-05 01:07 | -33.59184 | -71.35783 | 3644 ft | 165 kts | 297° |
| 2026-05-05 01:08 | -33.58730 | -71.37095 | 3262 ft | 191 kts | 285° |
| 2026-05-05 01:08 | -33.58927 | -71.38753 | 2860 ft | 201 kts | 252° |
| 2026-05-05 01:08 | -33.59378 | -71.40057 | 3749 ft | 142 kts | 252° |
| 2026-05-05 01:08 | -33.59709 | -71.41081 | 4187 ft | 138 kts | 252° |
| 2026-05-05 01:09 | -33.60065 | -71.42248 | 4242 ft | 153 kts | 254° |
| 2026-05-05 01:09 | -33.60439 | -71.43511 | 4219 ft | 169 kts | 254° |
| 2026-05-05 01:09 | -33.60842 | -71.44911 | 3978 ft | 188 kts | 253° |
| 2026-05-05 01:09 | -33.61279 | -71.46391 | 3931 ft | 189 kts | 253° |
| 2026-05-05 01:10 | -33.61714 | -71.47933 | 3707 ft | 195 kts | 254° |
| 2026-05-05 01:10 | -33.62106 | -71.49352 | 4182 ft | 163 kts | 254° |
| 2026-05-05 01:10 | -33.62449 | -71.50509 | 4837 ft | 134 kts | 255° |
| 2026-05-05 01:10 | -33.62771 | -71.51512 | 5181 ft | 136 kts | 254° |
| 2026-05-05 01:11 | -33.63142 | -71.52714 | 5081 ft | 164 kts | 255° |
| 2026-05-05 01:11 | -33.63493 | -71.54048 | 5131 ft | 170 kts | 258° |
| 2026-05-05 01:11 | -33.63827 | -71.55451 | 4891 ft | 189 kts | 256° |
| 2026-05-05 01:11 | -33.64156 | -71.57077 | 4215 ft | 212 kts | 257° |
| 2026-05-05 01:12 | -33.64395 | -71.58758 | 3937 ft | 186 kts | 277° |
| 2026-05-05 01:12 | -33.63627 | -71.59881 | 3034 ft | 194 kts | 346° |
| 2026-05-05 01:12 | -33.62554 | -71.59220 | 2393 ft | 190 kts | 76° |
| 2026-05-05 01:12 | -33.62599 | -71.58123 | 3207 ft | 99 kts | 127° |
| 2026-05-05 01:13 | -33.63364 | -71.57877 | 2874 ft | 137 kts | 206° |
| 2026-05-05 01:13 | -33.63884 | -71.58826 | 2475 ft | 128 kts | 278° |
| 2026-05-05 01:13 | -33.63879 | -71.59584 | 2707 ft | 95 kts | 208° |
| 2026-05-05 01:13 | -33.64642 | -71.59276 | 2144 ft | 126 kts | 200° |
| 2026-05-05 01:14 | -33.64899 | -71.60280 | 1321 ft | 131 kts | 283° |
| 2026-05-05 01:14 | -33.64348 | -71.60362 | 988 ft | 105 kts | 77° |
| 2026-05-05 01:14 | -33.64787 | -71.60141 | 591 ft | 93 kts | 228° |
| 2026-05-05 01:14 | -33.65165 | -71.60717 | 412 ft | 88 kts | 230° |
| 2026-05-05 01:15 | -33.65409 | -71.61113 | 291 ft | 89 kts | 237° |
| 2026-05-05 01:15 | -33.65790 | -71.61796 | 240 ft | 36 kts | 233° |
| 2026-05-05 01:15 | -33.65816 | -71.61874 | 240 ft | 11 kts | 340° |
| 2026-05-05 01:15 | -33.65710 | -71.61666 | 244 ft | 37 kts | 54° |
| 2026-05-05 01:16 | -33.65619 | -71.61498 | 245 ft | 34 kts | 57° |
| 2026-05-05 01:16 | -33.65588 | -71.61439 | 245 ft | 0 kts | 57° |
| 2026-05-05 01:16 | -33.65480 | -71.61265 | 247 ft | 25 kts | 48° |
| 2026-05-05 01:16 | -33.65454 | -71.61215 | 247 ft | 0 kts | 127° |
| 2026-05-05 01:17 | -33.65484 | -71.61181 | 248 ft | 13 kts | 77° |
| 2026-05-05 01:17 | -33.65445 | -71.61187 | 247 ft | 3 kts | 264° |
| 2026-05-05 01:17 | -33.65453 | -71.61206 | 247 ft | 0 kts | 234° |
| 2026-05-05 01:18 | -33.65507 | -71.61300 | 248 ft | 47 kts | 236° |
| 2026-05-05 01:18 | -33.65813 | -71.61840 | 308 ft | 100 kts | 236° |
| 2026-05-05 01:18 | -33.66185 | -71.62542 | 731 ft | 98 kts | 238° |
| 2026-05-05 01:19 | -33.66502 | -71.63232 | 1116 ft | 104 kts | 266° |
| 2026-05-05 01:19 | -33.66353 | -71.64056 | 1409 ft | 113 kts | 310° |
| 2026-05-05 01:19 | -33.65831 | -71.64735 | 1722 ft | 122 kts | 313° |
| 2026-05-05 01:19 | -33.65203 | -71.65486 | 2001 ft | 125 kts | 314° |
| 2026-05-05 01:20 | -33.64424 | -71.65376 | 1385 ft | 178 kts | 54° |
| 2026-05-05 01:20 | -33.63973 | -71.64050 | 2004 ft | 128 kts | 50° |
| 2026-05-05 01:20 | -33.63210 | -71.63599 | 2503 ft | 121 kts | 19° |
| 2026-05-05 01:20 | -33.62437 | -71.63334 | 2945 ft | 116 kts | 8° |
| 2026-05-05 01:21 | -33.61610 | -71.63448 | 3235 ft | 122 kts | 345° |
| 2026-05-05 01:21 | -33.60773 | -71.63499 | 3502 ft | 127 kts | 9° |
| 2026-05-05 01:21 | -33.59923 | -71.63210 | 3847 ft | 125 kts | 17° |
| 2026-05-05 01:21 | -33.59088 | -71.62855 | 4084 ft | 131 kts | 18° |
| 2026-05-05 01:22 | -33.58171 | -71.62796 | 4372 ft | 129 kts | 356° |
| 2026-05-05 01:22 | -33.57310 | -71.62907 | 4699 ft | 129 kts | 353° |
| 2026-05-05 01:22 | -33.56396 | -71.63018 | 4912 ft | 132 kts | 356° |
| 2026-05-05 01:22 | -33.55453 | -71.62693 | 4895 ft | 151 kts | 24° |
| 2026-05-05 01:23 | -33.54546 | -71.62092 | 4888 ft | 163 kts | 28° |
| 2026-05-05 01:23 | -33.53574 | -71.61458 | 5190 ft | 148 kts | 23° |
| 2026-05-05 01:23 | -33.52701 | -71.60974 | 5611 ft | 135 kts | 13° |
| 2026-05-05 01:23 | -33.51755 | -71.60837 | 5779 ft | 140 kts | 1° |
| 2026-05-05 01:24 | -33.50756 | -71.60786 | 5817 ft | 153 kts | 2° |
| 2026-05-05 01:24 | -33.49678 | -71.60654 | 5983 ft | 152 kts | 4° |
| 2026-05-05 01:24 | -33.48596 | -71.60523 | 5697 ft | 178 kts | 5° |
| 2026-05-05 01:24 | -33.47323 | -71.60337 | 5519 ft | 183 kts | 6° |
| 2026-05-05 01:25 | -33.46066 | -71.60135 | 5359 ft | 185 kts | 6° |
| 2026-05-05 01:25 | -33.44792 | -71.59949 | 5304 ft | 182 kts | 6° |
| 2026-05-05 01:25 | -33.43547 | -71.59760 | 5292 ft | 178 kts | 6° |
| 2026-05-05 01:25 | -33.42378 | -71.59540 | 5575 ft | 161 kts | 7° |
| 2026-05-05 01:26 | -33.41273 | -71.59318 | 5513 ft | 171 kts | 7° |
| 2026-05-05 01:26 | -33.40062 | -71.59087 | 5322 ft | 181 kts | 9° |
| 2026-05-05 01:26 | -33.38807 | -71.58875 | 5210 ft | 182 kts | 5° |
| 2026-05-05 01:26 | -33.37546 | -71.58664 | 4990 ft | 187 kts | 9° |
| 2026-05-05 01:27 | -33.36249 | -71.58428 | 4803 ft | 188 kts | 11° |
| 2026-05-05 01:27 | -33.34970 | -71.58161 | 4621 ft | 187 kts | 15° |
| 2026-05-05 01:27 | -33.33712 | -71.57809 | 4403 ft | 188 kts | 17° |
| 2026-05-05 01:27 | -33.32409 | -71.57430 | 4026 ft | 196 kts | 15° |
| 2026-05-05 01:28 | -33.31063 | -71.57029 | 3581 ft | 202 kts | 17° |
| 2026-05-05 01:28 | -33.29832 | -71.56625 | 3437 ft | 195 kts | 13° |
| 2026-05-05 01:28 | -33.28583 | -71.56325 | 3704 ft | 170 kts | 7° |
| 2026-05-05 01:28 | -33.27511 | -71.56142 | 4219 ft | 144 kts | 6° |
| 2026-05-05 01:29 | -33.26556 | -71.55969 | 4580 ft | 138 kts | 8° |
| 2026-05-05 01:29 | -33.25663 | -71.55486 | 4520 ft | 161 kts | 40° |
| 2026-05-05 01:29 | -33.24901 | -71.54458 | 4644 ft | 157 kts | 42° |
| 2026-05-05 01:29 | -33.23933 | -71.53752 | 4338 ft | 176 kts | 12° |
| 2026-05-05 01:30 | -33.22712 | -71.53492 | 4265 ft | 176 kts | 7° |
| 2026-05-05 01:30 | -33.21472 | -71.53229 | 3895 ft | 192 kts | 10° |
| 2026-05-05 01:30 | -33.20163 | -71.52916 | 3727 ft | 191 kts | 10° |
| 2026-05-05 01:30 | -33.18853 | -71.52690 | 3616 ft | 189 kts | 4° |
| 2026-05-05 01:31 | -33.17566 | -71.52548 | 3688 ft | 178 kts | 5° |
| 2026-05-05 01:31 | -33.16377 | -71.52374 | 3868 ft | 169 kts | 5° |
| 2026-05-05 01:31 | -33.15259 | -71.52223 | 4167 ft | 156 kts | 6° |
| 2026-05-05 01:31 | -33.14210 | -71.52136 | 4417 ft | 152 kts | 2° |
| 2026-05-05 01:32 | -33.13151 | -71.51982 | 4487 ft | 157 kts | 7° |
| 2026-05-05 01:32 | -33.12045 | -71.51755 | 4556 ft | 162 kts | 9° |
| 2026-05-05 01:32 | -33.10935 | -71.51501 | 4597 ft | 164 kts | 9° |
| 2026-05-05 01:32 | -33.09775 | -71.51239 | 4387 ft | 179 kts | 9° |
| 2026-05-05 01:33 | -33.08513 | -71.50943 | 4079 ft | 190 kts | 11° |
| 2026-05-05 01:33 | -33.07221 | -71.50620 | 4034 ft | 185 kts | 12° |
| 2026-05-05 01:33 | -33.05978 | -71.50311 | 3952 ft | 183 kts | 2° |
| 2026-05-05 01:33 | -33.04695 | -71.50518 | 3439 ft | 181 kts | 345° |
| 2026-05-05 01:34 | -33.03461 | -71.50495 | 3069 ft | 162 kts | 8° |
| 2026-05-05 01:34 | -33.02533 | -71.50303 | 3350 ft | 114 kts | 12° |
| 2026-05-05 01:34 | -33.01753 | -71.50454 | 2623 ft | 149 kts | 325° |
| 2026-05-05 01:34 | -33.00765 | -71.50889 | 2231 ft | 150 kts | 354° |
| 2026-05-05 01:35 | -32.99811 | -71.51083 | 2109 ft | 133 kts | 347° |
| 2026-05-05 01:35 | -32.98974 | -71.51353 | 2076 ft | 116 kts | 342° |
| 2026-05-05 01:35 | -32.98231 | -71.51629 | 1993 ft | 113 kts | 345° |
| 2026-05-05 01:35 | -32.97436 | -71.51844 | 1797 ft | 122 kts | 345° |
| 2026-05-05 01:36 | -32.96574 | -71.51850 | 1556 ft | 130 kts | 22° |
| 2026-05-05 01:36 | -32.96115 | -71.51119 | 1428 ft | 124 kts | 110° |
| 2026-05-05 01:36 | -32.96817 | -71.51061 | 1371 ft | 113 kts | 242° |
| 2026-05-05 01:36 | -32.97250 | -71.51602 | 999 ft | 138 kts | 148° |
| 2026-05-05 01:37 | -32.97557 | -71.50742 | 1123 ft | 115 kts | 58° |
| 2026-05-05 01:37 | -32.96911 | -71.50205 | 950 ft | 116 kts | 27° |
| 2026-05-05 01:37 | -32.96215 | -71.49708 | 752 ft | 118 kts | 37° |
| 2026-05-05 01:37 | -32.95658 | -71.48991 | 549 ft | 119 kts | 53° |
| 2026-05-05 01:38 | -32.95188 | -71.48222 | 461 ft | 110 kts | 52° |
| 2026-05-05 01:38 | -32.94852 | -71.47736 | 457 ft | 27 kts | 58° |
| 2026-05-05 01:38 | -32.94908 | -71.47758 | 457 ft | 28 kts | 264° |
| 2026-05-05 01:38 | -32.94803 | -71.47936 | 458 ft | 25 kts | 351° |
| 2026-05-05 01:39 | -32.94828 | -71.48019 | 458 ft | 18 kts | 143° |
| 2026-05-05 01:39 | -32.94884 | -71.48072 | 458 ft | 22 kts | 259° |
| 2026-05-05 01:39 | -32.94817 | -71.48045 | 458 ft | 15 kts | 53° |
| 2026-05-05 01:39 | -32.94813 | -71.48088 | 458 ft | 13 kts | 169° |
| 2026-05-05 01:40 | -32.94840 | -71.48072 | 458 ft | 0 kts | 144° |
| 2026-05-05 01:42 | -32.94844 | -71.48069 | 458 ft | 0 kts | 144° |